Time;durP1;ratioP1;P1;durP2;ratioP2;P2;SDS_P1;SDS_P2;PMS_P1;PMS_P2;Temp;Humidity;BMP_temperature;BMP_pressure;BME280_temperature;BME280_humidity;BME280_pressure;Samples;Min_cycle;Max_cycle;Signal;HPM_P1;HPM_P2
2023/12/30 00:00:52;;;;;;;6.85;5.03;;;2.80;99.90;;;;;;5030680;28;20033;-79
2023/12/30 00:03:18;;;;;;;8.68;5.63;;;2.80;99.90;;;;;;5032943;28;20037;-78
2023/12/30 00:05:43;;;;;;;7.60;5.43;;;2.80;99.90;;;;;;5032680;28;20017;-78
2023/12/30 00:08:09;;;;;;;7.72;5.05;;;2.80;99.90;;;;;;5032808;28;20025;-78
2023/12/30 00:10:35;;;;;;;9.02;5.85;;;2.80;99.90;;;;;;5015247;28;20037;-77
2023/12/30 00:13:03;;;;;;;6.50;4.60;;;2.80;99.90;;;;;;5036600;28;20032;-77
2023/12/30 00:15:30;;;;;;;6.40;4.30;;;2.80;99.90;;;;;;5035184;28;20095;-77
2023/12/30 00:17:55;;;;;;;7.25;5.45;;;2.80;99.90;;;;;;5031784;28;20032;-77
2023/12/30 00:20:22;;;;;;;6.70;5.15;;;2.80;99.90;;;;;;5032512;28;20487;-77
2023/12/30 00:22:48;;;;;;;4.45;4.00;;;2.80;99.90;;;;;;5032456;28;20442;-77
2023/12/30 00:25:14;;;;;;;6.43;4.45;;;2.70;99.90;;;;;;5032348;28;20025;-79
2023/12/30 00:27:40;;;;;;;9.07;4.63;;;2.70;99.90;;;;;;5032345;28;20022;-78
2023/12/30 00:30:06;;;;;;;8.63;4.20;;;2.70;99.90;;;;;;5032451;28;20026;-77
2023/12/30 00:32:32;;;;;;;4.93;3.95;;;2.70;99.90;;;;;;5032385;28;20083;-77
2023/12/30 00:34:58;;;;;;;5.95;3.97;;;2.60;99.90;;;;;;5032192;28;20030;-76
2023/12/30 00:37:24;;;;;;;6.07;4.03;;;2.60;99.90;;;;;;5032292;28;20029;-78
2023/12/30 00:39:50;;;;;;;5.22;3.80;;;2.60;99.90;;;;;;5014205;28;20398;-77
2023/12/30 00:42:16;;;;;;;5.93;4.32;;;2.60;99.90;;;;;;5014309;28;20021;-78
2023/12/30 00:44:42;;;;;;;5.65;4.15;;;2.60;99.90;;;;;;5031854;28;20083;-76
2023/12/30 00:47:07;;;;;;;5.45;3.70;;;2.60;99.90;;;;;;5014242;28;20030;-77
2023/12/30 00:49:33;;;;;;;6.30;3.47;;;2.60;99.90;;;;;;5014491;28;20025;-77
2023/12/30 00:51:59;;;;;;;3.75;3.05;;;2.60;99.90;;;;;;5030622;28;20041;-78
2023/12/30 00:54:25;;;;;;;3.13;2.83;;;2.50;99.90;;;;;;5032007;28;20487;-77
2023/12/30 00:56:51;;;;;;;5.28;2.92;;;2.50;99.90;;;;;;5002587;28;20515;-78
2023/12/30 00:59:16;;;;;;;5.45;3.80;;;2.50;99.90;;;;;;5027474;28;20108;-76
2023/12/30 01:01:42;;;;;;;4.57;3.17;;;2.50;99.90;;;;;;5031831;28;20030;-79
2023/12/30 01:04:08;;;;;;;4.57;3.15;;;2.50;99.90;;;;;;5030040;28;20124;-79
2023/12/30 01:06:34;;;;;;;3.55;2.95;;;2.50;99.90;;;;;;5031947;28;20026;-79
2023/12/30 01:09:00;;;;;;;4.10;3.03;;;2.40;99.90;;;;;;5029537;28;20105;-79
2023/12/30 01:11:26;;;;;;;4.47;3.40;;;2.40;99.90;;;;;;5004552;28;20061;-78
2023/12/30 01:13:52;;;;;;;5.97;3.72;;;2.40;99.90;;;;;;5031509;28;20022;-78
2023/12/30 01:16:18;;;;;;;3.33;2.95;;;2.40;99.90;;;;;;5031567;28;20030;-77
2023/12/30 01:18:43;;;;;;;4.65;3.10;;;2.40;99.90;;;;;;5021792;28;20040;-78
2023/12/30 01:21:09;;;;;;;4.35;3.78;;;2.40;99.90;;;;;;5034309;28;20051;-77
2023/12/30 01:23:35;;;;;;;4.03;2.85;;;2.30;99.90;;;;;;5031564;28;20021;-77
2023/12/30 01:26:01;;;;;;;5.40;3.40;;;2.30;99.90;;;;;;5023051;28;20030;-79
2023/12/30 01:28:26;;;;;;;4.10;3.42;;;2.40;99.90;;;;;;5030226;28;20026;-78
2023/12/30 01:30:52;;;;;;;5.28;3.20;;;2.40;99.90;;;;;;5013691;28;20026;-79
2023/12/30 01:33:18;;;;;;;4.22;2.88;;;2.40;99.90;;;;;;5023889;28;20109;-78
2023/12/30 01:35:44;;;;;;;3.65;3.05;;;2.40;99.90;;;;;;5037008;28;20041;-79
2023/12/30 01:38:10;;;;;;;3.88;2.75;;;2.30;99.90;;;;;;5023481;28;20032;-79
2023/12/30 01:40:35;;;;;;;4.50;3.13;;;2.30;99.90;;;;;;5031719;28;20025;-78
2023/12/30 01:43:02;;;;;;;4.75;3.35;;;2.40;99.90;;;;;;5029687;28;20033;-78
2023/12/30 01:45:28;;;;;;;4.57;3.80;;;2.30;99.90;;;;;;5031946;28;20029;-78
2023/12/30 01:47:55;;;;;;;5.20;3.60;;;2.30;99.90;;;;;;5032486;28;20266;-78
2023/12/30 01:50:21;;;;;;;5.45;3.47;;;2.30;99.90;;;;;;5031445;28;20030;-78
2023/12/30 01:52:48;;;;;;;6.57;3.58;;;2.30;99.90;;;;;;5030002;28;20530;-78
2023/12/30 01:55:16;;;;;;;4.75;4.00;;;2.30;99.90;;;;;;5013710;28;20550;-77
2023/12/30 01:57:44;;;;;;;5.65;3.97;;;2.30;99.90;;;;;;5031289;28;20031;-77
2023/12/30 02:00:15;;;;;;;5.88;3.75;;;2.30;99.90;;;;;;5031590;28;20363;-77
2023/12/30 02:02:42;;;;;;;5.20;4.15;;;2.30;99.90;;;;;;5032996;28;20024;-77
2023/12/30 02:05:08;;;;;;;5.50;4.77;;;2.40;99.90;;;;;;5013436;28;20398;-78
2023/12/30 02:07:34;;;;;;;6.60;4.45;;;2.40;99.90;;;;;;5019694;28;20270;-79
2023/12/30 02:09:59;;;;;;;5.82;4.20;;;2.40;99.90;;;;;;5031761;28;20108;-78
2023/12/30 02:12:25;;;;;;;6.75;3.90;;;2.40;99.90;;;;;;5010390;28;20045;-79
2023/12/30 02:14:51;;;;;;;5.78;4.47;;;2.40;99.90;;;;;;5034731;28;20152;-79
2023/12/30 02:17:17;;;;;;;6.15;4.57;;;2.40;99.90;;;;;;5034875;28;20041;-79
2023/12/30 02:19:42;;;;;;;10.00;4.57;;;2.40;99.90;;;;;;5034182;28;20101;-78
2023/12/30 02:22:08;;;;;;;5.10;4.60;;;2.50;99.90;;;;;;5008334;28;20075;-78
2023/12/30 02:24:34;;;;;;;7.35;4.88;;;2.50;99.90;;;;;;5033752;28;20021;-79
2023/12/30 02:27:00;;;;;;;5.60;4.65;;;2.50;99.90;;;;;;5034791;28;20025;-79
2023/12/30 02:29:26;;;;;;;6.30;4.75;;;2.60;99.90;;;;;;5017097;28;20029;-78
2023/12/30 02:31:51;;;;;;;7.80;5.75;;;2.60;99.90;;;;;;5034553;28;20037;-79
2023/12/30 02:34:18;;;;;;;7.03;5.00;;;2.70;99.90;;;;;;5034810;28;20029;-77
2023/12/30 02:36:45;;;;;;;6.78;4.85;;;2.70;99.90;;;;;;5034417;28;20032;-79
2023/12/30 02:39:11;;;;;;;6.93;5.03;;;2.80;99.90;;;;;;5034384;28;20036;-78
2023/12/30 02:41:37;;;;;;;5.60;4.57;;;2.80;99.90;;;;;;5033154;28;20990;-79
2023/12/30 02:44:04;;;;;;;6.72;4.45;;;2.80;99.90;;;;;;5034316;28;20025;-79
2023/12/30 02:46:30;;;;;;;5.82;4.50;;;2.80;99.90;;;;;;5034482;28;20077;-78
2023/12/30 02:49:03;;;;;;;7.78;4.47;;;2.90;99.90;;;;;;5035806;28;20028;-78
2023/12/30 02:51:29;;;;;;;6.28;4.30;;;2.90;99.90;;;;;;5036366;28;20036;-79
2023/12/30 02:53:55;;;;;;;6.82;5.07;;;2.90;99.90;;;;;;5034852;28;20060;-79
2023/12/30 02:56:23;;;;;;;5.43;4.05;;;2.90;99.90;;;;;;5034291;28;20029;-80
2023/12/30 02:58:51;;;;;;;;;;;3.00;99.90;;;;;;5004706;28;20118;-79
2023/12/30 03:01:17;;;;;;;6.07;4.30;;;3.00;99.90;;;;;;5020444;28;19909;-79
2023/12/30 03:03:43;;;;;;;5.13;4.07;;;2.90;99.90;;;;;;5034041;28;20036;-79
2023/12/30 03:06:12;;;;;;;4.57;3.55;;;2.90;99.90;;;;;;5033857;28;20021;-79
2023/12/30 03:08:38;;;;;;;5.93;3.95;;;2.90;99.90;;;;;;5033881;28;20025;-80
2023/12/30 03:11:04;;;;;;;5.63;3.78;;;2.90;99.90;;;;;;5032111;28;20510;-78
2023/12/30 03:13:29;;;;;;;7.18;3.95;;;3.00;99.90;;;;;;5033589;28;20323;-79
2023/12/30 03:15:55;;;;;;;4.97;3.28;;;3.00;99.90;;;;;;5034006;28;20026;-78
2023/12/30 03:18:22;;;;;;;5.75;4.20;;;3.00;99.90;;;;;;5034847;28;20109;-80
2023/12/30 03:20:48;;;;;;;5.40;3.95;;;3.00;99.90;;;;;;5035247;28;20070;-80
2023/12/30 03:23:13;;;;;;;4.47;2.72;;;3.00;99.90;;;;;;5033901;28;20032;-80
2023/12/30 03:25:39;;;;;;;4.53;3.75;;;3.00;99.90;;;;;;5033508;28;20025;-79
2023/12/30 03:28:05;;;;;;;4.88;3.60;;;3.00;99.90;;;;;;5014847;28;20064;-79
2023/12/30 03:30:31;;;;;;;3.53;2.75;;;3.00;99.90;;;;;;5033453;28;20045;-78
2023/12/30 03:32:57;;;;;;;2.40;1.85;;;3.00;99.90;;;;;;5033360;28;20132;-81
2023/12/30 03:35:23;;;;;;;2.92;1.95;;;3.00;99.90;;;;;;5033871;28;20352;-78
2023/12/30 03:37:48;;;;;;;4.57;2.50;;;3.00;99.90;;;;;;5033586;28;20026;-77
2023/12/30 03:40:14;;;;;;;6.20;2.50;;;2.90;99.90;;;;;;5033894;28;20440;-79
2023/12/30 03:42:40;;;;;;;3.88;1.98;;;2.90;99.90;;;;;;5032470;28;20048;-79
2023/12/30 03:45:06;;;;;;;3.10;1.80;;;2.90;99.90;;;;;;5015370;28;20037;-78
2023/12/30 03:47:32;;;;;;;3.50;2.20;;;2.80;99.90;;;;;;5033328;28;20101;-79
2023/12/30 03:49:58;;;;;;;3.38;2.53;;;2.80;99.90;;;;;;5033049;28;20116;-80
2023/12/30 03:52:24;;;;;;;3.28;2.15;;;2.80;99.90;;;;;;5033368;28;20109;-78
2023/12/30 03:54:51;;;;;;;2.67;1.98;;;2.70;99.90;;;;;;5024582;28;20442;-80
2023/12/30 03:57:17;;;;;;;3.53;2.35;;;2.70;99.90;;;;;;5010380;28;20041;-80
2023/12/30 03:59:43;;;;;;;2.38;2.00;;;2.70;99.90;;;;;;5031818;28;20028;-79
2023/12/30 04:02:08;;;;;;;4.72;1.90;;;2.70;99.90;;;;;;5033357;28;20368;-79
2023/12/30 04:04:35;;;;;;;3.95;1.88;;;2.70;99.90;;;;;;5032962;28;20033;-79
2023/12/30 04:07:01;;;;;;;3.67;2.05;;;2.60;99.90;;;;;;5032824;28;20033;-79
2023/12/30 04:09:26;;;;;;;2.63;2.10;;;2.60;99.90;;;;;;5032587;28;20041;-79
2023/12/30 04:11:52;;;;;;;4.65;2.65;;;2.60;99.90;;;;;;5028137;28;20092;-80
2023/12/30 04:14:18;;;;;;;2.30;1.52;;;2.60;99.90;;;;;;5028487;28;20032;-76
2023/12/30 04:16:44;;;;;;;3.50;1.60;;;2.50;99.90;;;;;;5031389;28;20561;-79
2023/12/30 04:19:09;;;;;;;2.65;1.85;;;2.40;99.90;;;;;;5032413;28;20022;-80
2023/12/30 04:21:35;;;;;;;2.63;2.00;;;2.40;99.90;;;;;;5014625;28;20114;-79
2023/12/30 04:24:01;;;;;;;4.07;2.20;;;2.30;99.90;;;;;;5032402;28;20026;-79
2023/12/30 04:26:27;;;;;;;3.55;2.40;;;2.30;99.90;;;;;;5032043;28;20029;-78
2023/12/30 04:28:52;;;;;;;4.50;2.78;;;2.30;99.90;;;;;;5032355;28;20025;-78
2023/12/30 04:31:18;;;;;;;4.15;2.72;;;2.20;99.90;;;;;;5014158;28;20080;-79
2023/12/30 04:33:44;;;;;;;3.42;2.40;;;2.10;99.90;;;;;;5031391;28;20050;-78
2023/12/30 04:36:10;;;;;;;4.55;2.63;;;2.10;99.90;;;;;;5031989;28;20048;-80
2023/12/30 04:38:35;;;;;;;2.88;2.50;;;2.00;99.90;;;;;;5032024;28;20028;-78
2023/12/30 04:41:01;;;;;;;3.70;2.70;;;2.00;99.90;;;;;;5032115;28;20033;-78
2023/12/30 04:43:27;;;;;;;3.47;2.90;;;2.10;99.90;;;;;;5032040;28;20398;-77
2023/12/30 04:45:53;;;;;;;3.65;3.25;;;2.10;99.90;;;;;;5027895;28;20021;-79
2023/12/30 04:48:18;;;;;;;6.10;2.25;;;2.10;99.90;;;;;;5032056;28;20030;-77
2023/12/30 04:50:45;;;;;;;4.50;2.92;;;2.10;99.90;;;;;;5029885;28;20486;-77
2023/12/30 04:53:11;;;;;;;8.07;3.17;;;2.10;99.90;;;;;;5032117;28;20028;-79
2023/12/30 04:55:36;;;;;;;3.85;2.53;;;2.10;99.90;;;;;;5034796;28;20496;-77
2023/12/30 04:58:02;;;;;;;2.53;2.33;;;2.10;99.90;;;;;;5031900;28;20032;-77
2023/12/30 05:00:28;;;;;;;4.65;3.10;;;2.10;99.90;;;;;;5014056;28;20032;-78
2023/12/30 05:02:54;;;;;;;3.33;3.03;;;2.10;99.90;;;;;;5013953;28;20029;-79
2023/12/30 05:05:20;;;;;;;4.53;3.13;;;2.10;99.90;;;;;;5014496;28;20036;-79
2023/12/30 05:07:46;;;;;;;5.15;3.55;;;2.10;99.90;;;;;;5016888;28;20048;-78
2023/12/30 05:10:12;;;;;;;3.60;2.97;;;2.20;99.90;;;;;;5032081;28;20029;-80
2023/12/30 05:12:37;;;;;;;3.95;3.22;;;2.10;99.90;;;;;;5031218;28;20441;-78
2023/12/30 05:15:04;;;;;;;5.05;3.83;;;2.10;99.90;;;;;;5031398;28;20041;-77
2023/12/30 05:17:31;;;;;;;4.10;3.70;;;2.20;99.90;;;;;;5031630;28;20079;-78
2023/12/30 05:19:57;;;;;;;6.43;3.83;;;2.20;99.90;;;;;;5031441;28;20025;-77
2023/12/30 05:22:22;;;;;;;7.47;3.75;;;2.20;99.90;;;;;;5031620;28;20080;-78
2023/12/30 05:24:48;;;;;;;6.03;4.25;;;2.20;99.90;;;;;;5030271;28;20026;-78
2023/12/30 05:27:14;;;;;;;4.05;3.47;;;2.30;99.90;;;;;;5031614;28;20032;-77
2023/12/30 05:29:40;;;;;;;7.07;4.82;;;2.20;99.90;;;;;;5031517;28;20047;-80
2023/12/30 05:32:06;;;;;;;8.02;4.40;;;2.20;99.90;;;;;;5031648;28;20029;-81
2023/12/30 05:34:31;;;;;;;6.78;4.25;;;2.20;99.90;;;;;;5031480;28;20029;-80
2023/12/30 05:36:57;;;;;;;5.10;4.60;;;2.30;99.90;;;;;;5017049;28;20044;-76
2023/12/30 05:39:23;;;;;;;7.88;4.65;;;2.30;99.90;;;;;;5031896;28;20040;-78
2023/12/30 05:41:49;;;;;;;5.57;4.25;;;2.30;99.90;;;;;;5027517;28;20031;-78
2023/12/30 05:44:15;;;;;;;9.95;4.40;;;2.30;99.90;;;;;;5033948;28;20503;-77
2023/12/30 05:46:40;;;;;;;5.63;4.75;;;2.30;99.90;;;;;;5035040;28;20160;-77
2023/12/30 05:49:06;;;;;;;6.10;4.05;;;2.30;99.90;;;;;;5035390;28;20018;-77
2023/12/30 05:51:32;;;;;;;6.00;3.80;;;2.30;99.90;;;;;;5017087;28;20076;-78
2023/12/30 05:53:58;;;;;;;5.80;4.30;;;2.40;99.90;;;;;;5034847;28;20025;-79
2023/12/30 05:56:24;;;;;;;5.63;3.75;;;2.40;99.90;;;;;;5035098;28;20096;-78
2023/12/30 05:58:52;;;;;;;6.13;4.47;;;2.40;99.90;;;;;;5017057;28;20108;-79
2023/12/30 06:01:18;;;;;;;5.55;4.75;;;2.40;99.90;;;;;;5031935;28;20072;-78
2023/12/30 06:03:44;;;;;;;4.75;3.92;;;2.40;99.90;;;;;;5034985;28;20513;-78
2023/12/30 06:06:09;;;;;;;8.40;4.75;;;2.40;99.90;;;;;;5034733;28;20026;-79
2023/12/30 06:08:35;;;;;;;8.13;6.15;;;2.40;99.90;;;;;;5034728;28;20022;-78
2023/12/30 06:11:01;;;;;;;5.72;4.38;;;2.40;99.90;;;;;;5034404;28;20056;-79
2023/12/30 06:13:27;;;;;;;4.78;3.67;;;2.40;99.90;;;;;;5034819;28;20096;-79
2023/12/30 06:15:56;;;;;;;7.18;5.25;;;2.40;99.90;;;;;;5017193;28;20029;-79
2023/12/30 06:18:26;;;;;;;6.47;4.85;;;2.40;99.90;;;;;;5033341;28;20017;-78
2023/12/30 06:20:52;;;;;;;6.68;4.55;;;2.40;99.90;;;;;;5034892;28;20017;-78
2023/12/30 06:23:18;;;;;;;6.88;3.97;;;2.40;99.90;;;;;;5035187;28;20017;-79
2023/12/30 06:25:43;;;;;;;6.68;3.42;;;2.50;99.90;;;;;;5035163;28;20152;-77
2023/12/30 06:28:09;;;;;;;4.82;3.80;;;2.50;99.90;;;;;;5034553;28;20028;-78
2023/12/30 06:30:35;;;;;;;4.45;2.92;;;2.50;99.90;;;;;;5037322;28;20026;-81
2023/12/30 06:33:06;;;;;;;3.40;3.05;;;2.50;99.90;;;;;;5034754;28;20032;-79
2023/12/30 06:35:33;;;;;;;7.35;4.15;;;2.50;99.90;;;;;;5033145;28;20479;-79
2023/12/30 06:37:59;;;;;;;3.78;3.42;;;2.50;99.90;;;;;;5016690;28;20418;-78
2023/12/30 06:40:25;;;;;;;3.55;2.80;;;2.60;99.90;;;;;;5032957;28;20025;-79
2023/12/30 06:42:51;;;;;;;4.68;3.80;;;2.50;99.90;;;;;;5034238;28;20106;-80
2023/12/30 06:45:16;;;;;;;4.28;2.40;;;2.50;99.90;;;;;;5034274;28;20029;-81
2023/12/30 06:47:42;;;;;;;5.13;2.65;;;2.50;99.90;;;;;;5016105;28;20560;-79
2023/12/30 06:50:08;;;;;;;3.53;2.97;;;2.60;99.90;;;;;;5034162;28;20383;-79
2023/12/30 06:52:34;;;;;;;5.18;2.63;;;2.50;99.90;;;;;;5034013;28;20112;-80
2023/12/30 06:55:00;;;;;;;5.15;3.10;;;2.60;99.90;;;;;;5033074;28;20018;-79
2023/12/30 06:57:25;;;;;;;7.05;3.30;;;2.60;99.90;;;;;;5032846;28;20037;-79
2023/12/30 06:59:51;;;;;;;4.53;2.80;;;2.60;99.90;;;;;;5034124;28;20112;-79
2023/12/30 07:02:17;;;;;;;3.63;2.53;;;2.70;99.90;;;;;;5034033;28;20033;-78
2023/12/30 07:04:43;;;;;;;3.50;2.42;;;2.70;99.90;;;;;;5034452;28;20424;-80
2023/12/30 07:07:09;;;;;;;3.08;2.25;;;2.80;99.90;;;;;;5016677;28;20048;-78
2023/12/30 07:09:39;;;;;;;3.42;2.10;;;2.80;99.90;;;;;;5025939;28;20049;-81
2023/12/30 07:12:07;;;;;;;3.65;2.30;;;2.90;99.90;;;;;;5016223;28;20566;-79
2023/12/30 07:14:37;;;;;;;2.22;1.63;;;3.00;99.90;;;;;;5032708;28;20017;-80
2023/12/30 07:17:03;;;;;;;3.95;2.45;;;3.00;99.90;;;;;;5034021;28;20087;-80
2023/12/30 07:19:29;;;;;;;2.30;1.40;;;3.00;99.90;;;;;;5012087;28;20364;-78
2023/12/30 07:21:56;;;;;;;3.40;1.60;;;2.90;99.90;;;;;;5033880;28;20109;-79
2023/12/30 07:24:22;;;;;;;3.22;1.98;;;2.90;99.90;;;;;;5034096;28;20017;-80
2023/12/30 07:26:48;;;;;;;3.17;1.85;;;2.90;99.90;;;;;;5031192;28;20117;-79
2023/12/30 07:29:13;;;;;;;4.22;1.20;;;2.90;99.90;;;;;;5009828;28;20048;-79
2023/12/30 07:31:40;;;;;;;1.88;1.48;;;2.90;99.90;;;;;;5027613;28;20063;-78
2023/12/30 07:34:05;;;;;;;3.03;1.30;;;2.90;99.90;;;;;;5029317;28;20029;-80
2023/12/30 07:36:31;;;;;;;2.22;1.33;;;2.90;99.90;;;;;;5006667;28;20459;-79
2023/12/30 07:38:58;;;;;;;1.70;1.38;;;2.90;99.90;;;;;;5027357;28;20083;-77
2023/12/30 07:41:24;;;;;;;7.72;1.95;;;2.90;99.90;;;;;;5029342;28;20101;-79
2023/12/30 07:43:50;;;;;;;6.20;1.45;;;3.00;99.90;;;;;;5019422;28;20030;-78
2023/12/30 07:46:16;;;;;;;3.13;1.60;;;3.00;99.90;;;;;;5031538;28;20379;-78
2023/12/30 07:48:43;;;;;;;5.15;1.52;;;3.00;99.90;;;;;;5015318;28;20112;-79
2023/12/30 07:51:10;;;;;;;1.48;1.15;;;3.00;99.90;;;;;;5021813;28;20030;-78
2023/12/30 07:53:36;;;;;;;1.92;1.30;;;3.00;99.90;;;;;;5010463;28;20026;-80
2023/12/30 07:56:03;;;;;;;3.05;1.73;;;3.00;99.90;;;;;;5031528;28;20040;-79
2023/12/30 07:58:28;;;;;;;2.15;1.98;;;3.00;99.90;;;;;;5032701;28;20021;-79
2023/12/30 08:00:54;;;;;;;4.03;1.80;;;3.00;99.90;;;;;;5032419;28;20029;-80
2023/12/30 08:03:20;;;;;;;2.72;1.45;;;3.00;99.90;;;;;;5020643;28;20095;-81
2023/12/30 08:05:46;;;;;;;2.17;1.45;;;3.00;99.90;;;;;;5015474;28;20032;-79
2023/12/30 08:08:15;;;;;;;2.90;1.52;;;3.00;99.90;;;;;;5033000;28;20120;-80
2023/12/30 08:10:40;;;;;;;2.15;1.60;;;3.00;99.90;;;;;;5025727;28;20510;-79
2023/12/30 08:13:06;;;;;;;2.10;1.40;;;3.00;99.90;;;;;;5032285;28;20037;-79
2023/12/30 08:15:32;;;;;;;1.27;1.10;;;3.00;99.90;;;;;;5021697;28;20030;-78
2023/12/30 08:17:58;;;;;;;2.95;1.70;;;3.10;99.90;;;;;;5028660;28;20028;-80
2023/12/30 08:20:23;;;;;;;1.58;1.40;;;3.00;99.90;;;;;;5032791;28;20485;-79
2023/12/30 08:22:50;;;;;;;2.10;1.67;;;3.00;99.90;;;;;;5027163;28;20098;-79
2023/12/30 08:25:16;;;;;;;2.10;1.38;;;3.00;99.90;;;;;;5034598;28;20487;-79
2023/12/30 08:27:41;;;;;;;2.22;1.63;;;3.00;99.90;;;;;;5020264;28;20025;-79
2023/12/30 08:30:08;;;;;;;1.75;1.30;;;3.10;99.90;;;;;;5027085;28;20534;-80
2023/12/30 08:32:34;;;;;;;2.28;1.55;;;3.00;99.90;;;;;;5025151;28;20034;-79
2023/12/30 08:35:02;;;;;;;2.58;1.98;;;3.00;99.90;;;;;;5012535;28;20025;-79
2023/12/30 08:37:29;;;;;;;2.50;1.15;;;3.10;99.90;;;;;;5032026;28;20111;-79
2023/12/30 08:39:55;;;;;;;2.58;1.65;;;3.20;99.90;;;;;;5015550;28;20091;-78
2023/12/30 08:42:22;;;;;;;4.43;1.80;;;3.20;99.90;;;;;;5030915;28;20108;-79
2023/12/30 08:44:47;;;;;;;3.10;1.88;;;3.20;99.90;;;;;;5031793;28;20017;-78
2023/12/30 08:47:15;;;;;;;4.00;1.70;;;3.20;99.90;;;;;;5020061;28;20042;-79
2023/12/30 08:49:41;;;;;;;1.58;1.30;;;3.20;99.90;;;;;;5006660;28;20028;-79
2023/12/30 08:52:07;;;;;;;2.22;1.42;;;3.30;99.90;;;;;;5031863;28;20033;-79
2023/12/30 08:54:33;;;;;;;2.40;1.60;;;3.30;99.90;;;;;;5018493;28;20558;-80
2023/12/30 08:56:58;;;;;;;3.55;1.45;;;3.30;99.90;;;;;;5021912;28;20040;-79
2023/12/30 08:59:24;;;;;;;3.00;1.83;;;3.40;99.90;;;;;;5035218;28;20364;-80
2023/12/30 09:01:51;;;;;;;3.58;1.90;;;3.40;99.90;;;;;;5035291;28;20075;-86
2023/12/30 09:04:17;;;;;;;2.75;1.38;;;3.50;99.90;;;;;;5036961;28;20045;-85
2023/12/30 09:06:43;;;;;;;8.43;2.35;;;3.50;99.90;;;;;;5037151;28;20025;-85
2023/12/30 09:09:09;;;;;;;3.15;1.30;;;3.50;99.90;;;;;;5034538;28;20028;-82
2023/12/30 09:11:37;;;;;;;5.60;2.92;;;3.50;99.90;;;;;;5007667;28;20060;-81
2023/12/30 09:14:05;;;;;;;2.63;1.20;;;3.50;99.90;;;;;;5025279;28;20021;-82
2023/12/30 09:16:32;;;;;;;1.02;0.90;;;3.50;99.90;;;;;;5037146;28;20022;-86
2023/12/30 09:18:58;;;;;;;2.90;1.50;;;3.50;99.90;;;;;;5028452;28;20022;-87
2023/12/30 09:21:24;;;;;;;1.67;1.08;;;3.40;99.90;;;;;;5007086;28;20041;-88
2023/12/30 09:23:50;;;;;;;1.48;1.38;;;3.30;99.90;;;;;;5027356;28;20033;-89
2023/12/30 09:26:17;;;;;;;3.65;1.50;;;3.30;99.90;;;;;;5009327;28;20053;-88
2023/12/30 09:28:43;;;;;;;2.75;1.38;;;3.40;99.90;;;;;;5019529;28;20079;-85
2023/12/30 09:31:10;;;;;;;2.20;1.60;;;3.40;99.90;;;;;;5014044;28;20028;-85
2023/12/30 09:33:36;;;;;;;2.15;1.65;;;3.30;99.90;;;;;;5035119;28;20025;-87
2023/12/30 09:36:01;;;;;;;2.47;1.48;;;3.20;99.90;;;;;;4999431;28;20036;-82
2023/12/30 09:38:27;;;;;;;2.92;1.40;;;3.30;99.90;;;;;;5024435;28;20390;-82
2023/12/30 09:40:54;;;;;;;3.47;1.50;;;3.30;99.90;;;;;;5031378;28;20030;-81
2023/12/30 09:43:25;;;;;;;2.10;1.77;;;3.30;99.90;;;;;;5022049;28;20084;-82
2023/12/30 09:45:52;;;;;;;1.77;1.48;;;3.30;99.90;;;;;;5024748;28;20028;-81
2023/12/30 09:48:25;;;;;;;1.92;1.58;;;3.40;99.90;;;;;;5033950;28;20324;-83
2023/12/30 09:50:51;;;;;;;3.10;1.70;;;3.40;99.90;;;;;;5032682;28;20029;-82
2023/12/30 09:53:17;;;;;;;4.00;3.00;;;3.40;99.90;;;;;;5030788;28;20029;-84
2023/12/30 09:55:45;;;;;;;2.97;1.85;;;3.40;99.90;;;;;;5037256;28;20030;-85
2023/12/30 09:58:12;;;;;;;2.75;2.28;;;3.50;99.90;;;;;;5040278;28;20018;-85
2023/12/30 10:00:42;;;;;;;2.22;1.63;;;3.50;99.90;;;;;;5014998;28;20403;-84
2023/12/30 10:03:09;;;;;;;2.67;2.22;;;3.50;99.90;;;;;;5033189;28;20026;-85
2023/12/30 10:05:34;;;;;;;4.37;2.77;;;3.50;99.90;;;;;;5033092;28;20021;-83
2023/12/30 10:08:03;;;;;;;8.25;2.22;;;3.50;99.90;;;;;;5014567;28;20354;-85
2023/12/30 10:10:57;;;;;;;5.43;2.72;;;3.60;99.90;;;;;;5032933;28;20037;-83
2023/12/30 10:13:26;;;;;;;2.30;1.98;;;3.60;99.90;;;;;;5031411;28;20049;-83
2023/12/30 10:15:53;;;;;;;3.08;1.98;;;3.60;99.90;;;;;;5033480;28;20080;-83
2023/12/30 10:18:21;;;;;;;3.35;1.88;;;3.60;99.90;;;;;;5021616;28;20026;-82
2023/12/30 10:20:47;;;;;;;3.65;2.72;;;3.70;99.90;;;;;;5009073;28;20492;-82
2023/12/30 10:23:14;;;;;;;2.38;1.70;;;3.80;99.90;;;;;;5009636;28;20499;-83
2023/12/30 10:25:41;;;;;;;2.65;1.80;;;3.90;99.90;;;;;;5028807;28;20014;-82
2023/12/30 10:28:06;;;;;;;4.63;1.88;;;3.90;99.90;;;;;;5033869;28;20125;-83
2023/12/30 10:30:32;;;;;;;3.45;2.10;;;3.90;99.90;;;;;;5020416;28;20065;-81
2023/12/30 10:33:09;;;;;;;4.50;1.95;;;4.00;99.90;;;;;;5037296;28;20034;-82
2023/12/30 10:35:37;;;;;;;3.90;2.15;;;4.00;99.90;;;;;;5044668;28;20068;-81
2023/12/30 10:38:04;;;;;;;3.58;2.45;;;3.90;99.90;;;;;;5022678;28;20058;-81
2023/12/30 10:40:31;;;;;;;4.20;2.60;;;3.90;99.90;;;;;;5027366;28;20029;-79
2023/12/30 10:42:57;;;;;;;3.20;2.58;;;3.90;99.90;;;;;;5013628;28;20033;-82
2023/12/30 10:45:24;;;;;;;4.47;2.42;;;3.90;99.90;;;;;;5034086;28;20010;-81
2023/12/30 10:47:50;;;;;;;4.05;2.20;;;4.00;99.90;;;;;;5025134;28;20025;-82
2023/12/30 10:50:16;;;;;;;4.47;2.73;;;4.00;99.90;;;;;;5037048;28;20025;-81
2023/12/30 10:52:50;;;;;;;3.08;2.30;;;4.00;99.90;;;;;;5048617;28;20043;-80
2023/12/30 10:55:19;;;;;;;4.88;2.75;;;4.00;99.90;;;;;;5047435;28;20025;-82
2023/12/30 10:57:51;;;;;;;6.05;2.38;;;3.90;99.90;;;;;;5023957;28;20025;-86
2023/12/30 11:00:20;;;;;;;6.82;2.85;;;4.00;99.90;;;;;;5031980;28;20022;-85
2023/12/30 11:02:47;;;;;;;3.33;2.30;;;4.10;99.90;;;;;;5038689;28;20773;-87
2023/12/30 11:05:31;;;;;;;5.35;2.35;;;4.10;99.90;;;;;;5027715;28;20017;-83
2023/12/30 11:07:57;;;;;;;4.70;3.15;;;4.10;99.90;;;;;;5023561;28;20099;-82
2023/12/30 11:10:23;;;;;;;6.80;3.20;;;4.10;99.90;;;;;;5011685;28;20025;-84
2023/12/30 11:12:52;;;;;;;3.28;2.80;;;4.10;99.90;;;;;;5024899;28;20037;-86
2023/12/30 11:15:28;;;;;;;3.40;2.25;;;4.10;99.90;;;;;;5033616;28;20010;-83
2023/12/30 11:17:56;;;;;;;2.55;1.98;;;4.20;99.90;;;;;;5033635;28;20021;-82
2023/12/30 11:20:32;;;;;;;4.35;1.75;;;4.20;99.90;;;;;;5033647;28;20025;-81
2023/12/30 11:23:01;;;;;;;2.25;1.98;;;4.20;99.90;;;;;;5033530;28;20024;-82
2023/12/30 11:26:03;;;;;;;3.33;2.47;;;4.20;99.90;;;;;;5033467;28;20026;-81
2023/12/30 11:28:32;;;;;;;4.50;2.25;;;4.20;99.90;;;;;;5008850;28;20026;-81
2023/12/30 11:31:00;;;;;;;2.80;2.10;;;4.20;99.90;;;;;;5033657;28;20032;-86
2023/12/30 11:33:26;;;;;;;2.75;2.20;;;4.20;99.90;;;;;;5025454;28;20056;-81
2023/12/30 11:35:55;;;;;;;3.20;2.20;;;4.30;99.90;;;;;;5026865;28;20048;-81
2023/12/30 11:38:21;;;;;;;2.47;1.98;;;4.30;99.90;;;;;;5033371;28;20048;-81
2023/12/30 11:40:54;;;;;;;3.72;2.00;;;4.30;99.90;;;;;;5032728;28;20022;-82
2023/12/30 11:43:21;;;;;;;2.40;1.65;;;4.30;99.90;;;;;;5029681;28;20029;-82
2023/12/30 11:45:47;;;;;;;3.23;2.13;;;4.30;99.90;;;;;;5033285;28;20471;-81
2023/12/30 11:48:14;;;;;;;2.72;1.75;;;4.30;99.90;;;;;;5033463;28;20088;-82
2023/12/30 11:50:41;;;;;;;3.33;2.10;;;4.30;99.90;;;;;;5031762;28;20047;-83
2023/12/30 11:53:07;;;;;;;4.50;3.22;;;4.30;99.90;;;;;;5023190;28;20036;-81
2023/12/30 11:55:36;;;;;;;9.45;5.93;;;4.30;99.90;;;;;;5023184;28;20111;-82
2023/12/30 11:58:02;;;;;;;2.75;1.92;;;4.30;99.90;;;;;;5021003;28;20030;-83
2023/12/30 12:00:28;;;;;;;2.30;1.88;;;4.40;99.90;;;;;;5032999;28;20022;-83
2023/12/30 12:02:55;;;;;;;7.65;4.22;;;4.40;99.90;;;;;;5015362;28;20053;-84
2023/12/30 12:05:22;;;;;;;;;;;4.60;99.90;;;;;;5033119;28;20033;-82
2023/12/30 12:07:49;;;;;;;6.97;3.33;;;4.60;99.90;;;;;;5014665;28;19959;-84
2023/12/30 12:10:14;;;;;;;6.63;4.80;;;4.50;99.90;;;;;;5018107;28;20084;-84
2023/12/30 12:12:43;;;;;;;4.25;2.75;;;4.60;99.90;;;;;;5038165;28;20032;-82
2023/12/30 12:15:09;;;;;;;3.20;2.22;;;4.60;99.90;;;;;;5031276;28;20025;-83
2023/12/30 12:17:35;;;;;;;4.68;2.33;;;4.60;99.90;;;;;;5003277;28;20029;-84
2023/12/30 12:20:04;;;;;;;4.07;3.00;;;4.60;99.90;;;;;;5027776;28;20403;-84
2023/12/30 12:22:30;;;;;;;6.15;4.47;;;4.60;99.90;;;;;;5009712;28;20029;-85
2023/12/30 12:24:57;;;;;;;6.57;2.75;;;4.60;99.90;;;;;;5025355;28;20022;-85
2023/12/30 12:27:23;;;;;;;7.25;3.30;;;4.60;99.90;;;;;;5024940;28;20399;-83
2023/12/30 12:29:50;;;;;;;8.00;3.95;;;4.70;99.90;;;;;;5033363;28;20030;-82
2023/12/30 12:32:23;;;;;;;7.20;4.55;;;4.70;99.90;;;;;;5008929;28;20026;-81
2023/12/30 12:34:53;;;;;;;5.75;3.95;;;4.70;99.90;;;;;;5021698;28;20026;-81
2023/12/30 12:37:20;;;;;;;9.40;4.85;;;4.70;99.90;;;;;;5024935;28;20362;-81
2023/12/30 12:39:46;;;;;;;4.47;3.10;;;4.60;99.90;;;;;;5032535;28;20041;-81
2023/12/30 12:42:14;;;;;;;8.57;4.40;;;4.70;99.90;;;;;;5017232;28;20029;-80
2023/12/30 12:44:40;;;;;;;6.70;4.18;;;4.70;99.90;;;;;;5042500;28;20071;-81
2023/12/30 12:47:08;;;;;;;6.80;4.13;;;4.70;99.90;;;;;;5029932;28;20083;-80
2023/12/30 12:49:34;;;;;;;5.13;3.60;;;4.70;99.90;;;;;;5027465;28;20386;-80
2023/12/30 12:52:00;;;;;;;4.22;3.20;;;4.70;99.90;;;;;;5023942;28;20179;-82
2023/12/30 12:54:26;;;;;;;4.60;3.20;;;4.70;99.90;;;;;;5033305;28;20049;-82